SR1WXW Weather Reports


Display with metric or nautical units.
time (UTC)temp
F
wind
direction
speed
MPH
gust
MPH
rain 1hr
in
rain 24hr
in
rain mn
in
humidity
%
barometer
mb
20210728205340 64 180 0.0 0.0 0.00 0.00 0.00 71 1004.1
20210728204340 64 180 0.0 0.0 0.00 0.00 0.00 71 1004.1
20210728203340 64 180 0.0 0.0 0.00 0.00 0.00 70 1003.9
20210728202340 64 202 0.0 0.0 0.00 0.00 0.00 70 1004.1
20210728201340 65 180 0.0 0.0 0.00 0.00 0.00 70 1004.0
20210728200340 65 180 0.0 0.0 0.00 0.00 0.00 69 1004.1
20210728195340 66 180 0.0 0.0 0.00 0.00 0.00 67 1004.1
20210728194340 66 180 0.0 0.0 0.00 0.00 0.00 66 1004.0
20210728193340 67 180 0.0 0.0 0.00 0.00 0.00 65 1003.9
20210728192340 67 180 0.0 0.0 0.00 0.00 0.00 65 1003.9
20210728191340 68 180 0.0 0.0 0.00 0.00 0.00 65 1003.9
20210728190340 68 180 0.0 0.0 0.00 0.00 0.00 64 1003.9
20210728185340 69 180 0.0 2.0 0.00 0.00 0.00 63 1003.8
20210728184340 69 202 0.0 0.0 0.00 0.00 0.00 63 1003.7
20210728183340 69 180 0.0 0.0 0.00 0.00 0.00 63 1003.7
20210728182340 70 202 0.0 0.0 0.00 0.00 0.00 62 1003.7
20210728181340 70 180 0.0 2.0 0.00 0.00 0.00 61 1003.7
20210728180340 70 202 0.0 1.0 0.00 0.00 0.00 61 1003.8
20210728175340 70 202 0.0 2.0 0.00 0.20 0.00 60 1003.8
20210728174340 71 180 0.0 0.0 0.00 0.20 0.00 60 1003.9
20210728173340 71 202 1.0 1.0 0.00 0.20 0.00 61 1003.9
20210728172340 71 180 2.0 5.0 0.00 0.20 0.00 61 1003.9
20210728171340 72 225 0.0 0.0 0.00 0.20 0.00 61 1003.9
20210728170340 72 247 0.0 2.0 0.00 0.20 0.00 62 1003.9
20210728165340 73 225 0.0 2.0 0.00 0.20 0.00 62 1004.0
20210728164340 73 247 4.0 4.0 0.00 0.20 0.00 63 1003.9
20210728163340 74 270 0.0 3.0 0.00 0.20 0.00 64 1003.8
20210728162340 75 202 0.0 0.0 0.00 0.20 0.00 63 1003.7
20210728161340 75 180 0.0 3.0 0.00 0.20 0.00 63 1003.7
20210728160340 75 225 0.0 0.0 0.00 0.20 0.00 62 1003.8
20210728155340 75 225 0.0 2.0 0.00 0.22 0.00 61 1003.9
20210728154340 75 202 0.0 0.0 0.00 0.22 0.00 61 1003.8
20210728153340 76 202 2.0 4.0 0.00 0.22 0.00 60 1004.0
20210728152340 76 202 1.0 3.0 0.00 0.22 0.00 60 1003.9
20210728151340 76 225 0.0 3.0 0.00 0.22 0.00 60 1004.2
20210728150340 76 202 0.0 4.0 0.00 0.22 0.00 61 1004.0
20210728145340 76 225 0.0 3.0 0.00 0.22 0.00 62 1004.1
20210728144340 76 157 0.0 0.0 0.00 0.22 0.00 62 1003.9
20210728143340 76 225 0.0 4.0 0.00 0.22 0.00 60 1004.0
20210728142340 77 180 1.0 2.0 0.00 0.22 0.00 61 1004.2
20210728141340 78 202 0.0 2.0 0.00 0.22 0.00 60 1004.0
20210728140340 79 202 5.0 5.0 0.00 0.22 0.00 59 1004.1
20210728135340 78 225 2.0 4.0 0.00 0.22 0.00 62 1004.1
20210728134341 78 225 0.0 0.0 0.00 0.22 0.00 61 1004.2
20210728133341 78 247 0.0 2.0 0.00 0.22 0.00 60 1004.1
20210728132341 78 202 2.0 2.0 0.00 0.22 0.00 59 1004.1
20210728131341 78 180 1.0 2.0 0.00 0.22 0.00 58 1004.2
20210728130341 79 157 0.0 2.0 0.00 0.22 0.00 57 1004.2
20210728125341 79 247 0.0 7.0 0.00 0.22 0.00 57 1004.2
20210728124341 79 202 1.0 4.0 0.00 0.22 0.00 58 1004.2
20210728123341 79 225 0.0 4.0 0.00 0.22 0.00 61 1004.2
20210728122341 78 157 0.0 4.0 0.00 0.22 0.00 62 1004.2
20210728115341 78 180 0.0 2.0 0.00 0.22 0.00 61 1004.3
20210728113341 77 202 0.0 0.0 0.00 0.22 0.00 65 1004.3
20210728111341 77 180 0.0 0.0 0.00 0.22 0.00 65 1004.6
20210728110341 76 157 0.0 0.0 0.00 0.22 0.00 67 1004.4
20210728105341 76 202 0.0 0.0 0.00 0.22 0.00 67 1004.6
20210728104341 76 202 0.0 2.0 0.00 0.22 0.00 66 1004.8
20210728102341 77 202 0.0 4.0 0.00 0.22 0.00 68 1004.6
20210728101341 75 247 0.0 2.0 0.00 0.22 0.00 69 1004.5
20210728100341 75 247 0.0 2.0 0.00 0.22 0.00 67 1004.5
20210728095341 75 225 0.0 3.0 0.00 0.22 0.00 68 1004.4
20210728094341 75 202 1.0 2.0 0.00 0.22 0.00 67 1004.6
20210728093341 75 247 0.0 3.0 0.00 0.22 0.00 67 1004.6
20210728092341 76 270 0.0 0.0 0.00 0.22 0.00 67 1004.3
20210728091341 77 247 0.0 4.0 0.00 0.22 0.00 66 1004.4
20210728090341 76 225 0.0 3.0 0.00 0.22 0.00 66 1004.4
20210728085341 76 180 2.0 2.0 0.00 0.22 0.00 66 1004.5
20210728084341 76 202 0.0 2.0 0.00 0.22 0.00 65 1004.4
20210728083341 77 202 0.0 0.0 0.00 0.22 0.00 64 1004.4
20210728082341 77 180 0.0 0.0 0.00 0.22 0.00 62 1004.3
20210728081341 79 180 0.0 3.0 0.00 0.22 0.00 59 1004.4
20210728080341 82 202 0.0 0.0 0.00 0.22 0.00 58 1004.3
20210728075341 83 180 0.0 1.0 0.00 0.22 0.00 57 1004.3
20210728074341 81 112 0.0 2.0 0.00 0.22 0.00 61 1004.4
20210728073341 79 112 0.0 2.0 0.00 0.22 0.00 64 1004.4
20210728072341 78 157 0.0 0.0 0.00 0.22 0.00 68 1004.3
20210728070341 75 180 0.0 0.0 0.00 0.22 0.00 76 1004.3
20210728065341 73 157 0.0 0.0 0.00 0.22 0.00 78 1004.3
20210728064341 71 157 0.0 0.0 0.00 0.22 0.00 80 1004.3
20210728063341 71 180 0.0 0.0 0.00 0.22 0.00 78 1004.3
20210728062342 71 157 0.0 0.0 0.00 0.22 0.00 78 1004.3
20210728060342 73 157 0.0 0.0 0.00 0.22 0.00 79 1004.3
20210728055342 71 180 0.0 0.0 0.00 0.22 0.00 83 1004.3
20210728054342 69 180 0.0 0.0 0.00 0.22 0.00 86 1004.6
20210728053342 66 157 0.0 0.0 0.00 0.22 0.00 88 1004.4
20210728052342 65 157 0.0 0.0 0.00 0.22 0.00 89 1004.4
20210728051342 65 157 0.0 0.0 0.00 0.22 0.00 91 1004.4
20210728050342 63 180 0.0 0.0 0.00 0.22 0.00 92 1004.4
20210728045342 61 180 0.0 0.0 0.00 0.22 0.00 93 1004.5
20210728044342 60 157 0.0 0.0 0.00 0.22 0.00 93 1004.3
20210728043342 60 157 0.0 0.0 0.00 0.22 0.00 93 1004.4
20210728042342 60 135 0.0 0.0 0.00 0.22 0.00 93 1004.5
20210728041342 60 157 0.0 0.0 0.00 0.22 0.00 93 1004.5
20210728040342 60 157 0.0 2.0 0.00 0.22 0.00 93 1004.6
20210728035342 60 157 0.0 0.0 0.00 0.22 0.00 93 1004.7
20210728034342 60 157 0.0 0.0 0.00 0.22 0.00 93 1004.7
20210728033342 60 157 0.0 0.0 0.00 0.22 0.00 93 1004.7
20210728032342 60 157 0.0 0.0 0.00 0.22 0.00 93 1004.6
20210728031342 60 157 0.0 0.0 0.00 0.22 0.00 93 1004.7
20210728030342 60 157 0.0 0.0 0.00 0.22 0.00 93 1004.6
20210728025342 60 157 0.0 0.0 0.00 0.22 0.00 93 1004.7
20210728024342 60 157 0.0 0.0 0.00 0.22 0.00 92 1004.7
20210728023342 60 180 0.0 0.0 0.00 0.22 0.00 92 1004.7
20210728022342 60 157 0.0 0.0 0.00 0.22 0.00 92 1004.7
20210728021342 60 157 0.0 0.0 0.00 0.22 0.00 92 1004.7
20210728020342 60 157 0.0 0.0 0.00 0.22 0.00 92 1004.8
20210728015342 60 157 0.0 0.0 0.00 0.22 0.00 92 1004.8
20210728014342 61 157 0.0 0.0 0.00 0.22 0.00 91 1004.8
20210728013342 61 157 0.0 0.0 0.00 0.22 0.00 91 1004.7
20210728012342 61 157 0.0 0.0 0.00 0.22 0.00 91 1004.8
20210728011342 61 157 0.0 0.0 0.00 0.22 0.00 91 1004.8
20210728010342 61 157 0.0 0.0 0.00 0.22 0.00 91 1004.8
20210728005342 62 135 0.0 0.0 0.00 0.22 0.00 91 1004.7
20210728004342 62 135 0.0 0.0 0.00 0.22 0.00 91 1005.0
20210728003342 62 135 0.0 0.0 0.00 0.22 0.00 91 1005.1
20210728002342 62 135 0.0 0.0 0.00 0.22 0.00 91 1005.1
20210728001342 62 135 0.0 0.0 0.00 0.22 0.00 90 1005.3
20210728000345 63 135 0.0 0.0 0.00 0.22 0.00 90 1005.3
20210727235342 63 135 0.0 0.0 0.00 0.22 0.00 90 1005.4
20210727234342 63 135 0.0 0.0 0.00 0.22 0.00 90 1005.6
20210727233342 63 135 0.0 0.0 0.00 0.22 0.00 90 1005.7
20210727232343 63 135 0.0 0.0 0.00 0.22 0.00 90 1005.8
20210727231343 63 135 0.0 0.0 0.00 0.22 0.00 90 1005.9
20210727230343 63 135 0.0 0.0 0.00 0.22 0.00 90 1005.9
20210727225343 63 135 0.0 0.0 0.00 0.22 0.00 90 1005.9
20210727224343 63 135 0.0 0.0 0.00 0.22 0.00 89 1006.0
20210727223343 63 112 0.0 0.0 0.00 0.22 0.00 89 1006.1
20210727222343 63 112 0.0 0.0 0.00 0.22 0.00 89 1006.1
20210727221343 63 67 0.0 0.0 0.00 0.22 0.00 89 1006.1
20210727220343 63 45 0.0 0.0 0.00 0.22 0.00 89 1006.1
20210727215343 64 157 0.0 0.0 0.00 0.22 0.00 89 1006.1
20210727214343 64 157 0.0 0.0 0.00 0.22 0.00 89 1006.0
20210727213343 64 45 0.0 0.0 0.00 0.22 0.00 89 1006.0
20210727212343 64 0 0.0 0.0 0.00 0.22 0.00 89 1006.0
20210727211343 64 315 0.0 0.0 0.00 0.22 0.00 89 1006.1
20210727210343 64 292 0.0 0.0 0.00 0.22 0.00 89 1006.0